createdAt,value
2022-10-05T00:02:38.454Z,3.58
2022-10-05T00:05:41.305Z,3.77
2022-10-05T00:08:44.341Z,3.65
2022-10-05T00:11:48.806Z,4.10
2022-10-05T00:14:54.463Z,3.97
2022-10-05T00:17:57.054Z,4.10
2022-10-05T00:20:59.684Z,4.13
2022-10-05T00:24:02.699Z,3.83
2022-10-05T00:27:16.049Z,3.97
2022-10-05T00:30:20.491Z,4.05
2022-10-05T00:33:23.230Z,3.53
2022-10-05T00:36:26.172Z,4.22
2022-10-05T00:39:29.976Z,4.38
2022-10-05T00:42:40.109Z,4.30
2022-10-05T00:45:46.405Z,3.90
2022-10-05T00:48:56.618Z,4.30
2022-10-05T00:52:05.476Z,4.23
2022-10-05T00:55:13.085Z,4.43
2022-10-05T00:58:23.290Z,4.20
2022-10-05T01:01:29.647Z,3.87
2022-10-05T01:04:38.115Z,3.93
2022-10-05T01:07:44.206Z,4.40
2022-10-05T01:10:50.066Z,4.07
2022-10-05T01:13:58.349Z,4.00
2022-10-05T01:17:05.045Z,4.50
2022-10-05T01:20:25.022Z,4.90
2022-10-05T01:23:59.275Z,5.23
2022-10-05T01:27:11.090Z,4.47
2022-10-05T01:30:17.547Z,4.60
2022-10-05T01:33:25.469Z,5.03
2022-10-05T01:36:32.368Z,4.23
2022-10-05T01:39:41.063Z,4.20
2022-10-05T01:42:52.808Z,4.50
2022-10-05T01:46:03.473Z,4.47
2022-10-05T01:49:17.746Z,4.47
2022-10-05T01:52:29.823Z,5.00
2022-10-05T01:55:36.211Z,4.53
2022-10-05T01:58:42.961Z,4.60
2022-10-05T02:01:50.264Z,5.57
2022-10-05T02:05:02.083Z,4.60
2022-10-05T02:08:09.190Z,4.40
2022-10-05T02:11:14.587Z,4.97
2022-10-05T02:14:20.440Z,4.90
2022-10-05T02:17:27.413Z,4.53
2022-10-05T02:20:33.286Z,5.40
2022-10-05T02:23:37.974Z,5.03
2022-10-05T02:26:41.345Z,5.13
2022-10-05T02:29:46.821Z,5.32
2022-10-05T02:32:56.529Z,5.30
2022-10-05T02:36:02.687Z,5.00
2022-10-05T02:39:11.282Z,5.03
2022-10-05T02:42:17.641Z,4.97
2022-10-05T02:45:24.803Z,5.30
2022-10-05T02:48:37.836Z,5.30
2022-10-05T02:51:46.515Z,5.78
2022-10-05T02:54:53.781Z,4.77
2022-10-05T02:57:59.711Z,4.27
2022-10-05T03:01:09.267Z,5.60
2022-10-05T03:04:21.078Z,5.60
2022-10-05T03:07:27.010Z,5.10
2022-10-05T03:10:36.166Z,4.80
2022-10-05T03:13:46.900Z,6.47
2022-10-05T03:16:56.964Z,5.60
2022-10-05T03:20:12.255Z,5.70
2022-10-05T03:23:20.446Z,5.60
2022-10-05T03:26:33.698Z,6.20
2022-10-05T03:29:40.688Z,4.95
2022-10-05T03:32:52.311Z,5.43
2022-10-05T03:36:02.940Z,4.90
2022-10-05T03:39:11.643Z,6.10
2022-10-05T03:42:21.414Z,6.07
2022-10-05T03:45:28.632Z,5.67
2022-10-05T03:48:34.765Z,5.63
2022-10-05T03:51:43.865Z,5.70
2022-10-05T03:54:48.734Z,5.40
2022-10-05T03:57:53.558Z,6.07
2022-10-05T04:01:00.185Z,5.50
2022-10-05T04:04:05.304Z,6.20
2022-10-05T04:07:14.212Z,6.40
2022-10-05T04:10:19.024Z,6.10
2022-10-05T04:13:25.359Z,6.00
2022-10-05T04:16:30.924Z,6.07
2022-10-05T04:19:38.132Z,6.03
2022-10-05T04:22:45.463Z,5.50
2022-10-05T04:25:51.996Z,6.63
2022-10-05T04:28:58.275Z,7.23
2022-10-05T04:32:25.592Z,7.53
2022-10-05T04:35:43.354Z,6.27
2022-10-05T04:38:55.294Z,6.30
2022-10-05T04:42:09.344Z,6.40
2022-10-05T04:45:19.987Z,6.40
2022-10-05T04:48:41.628Z,6.33
2022-10-05T04:51:51.474Z,6.20
2022-10-05T04:55:04.456Z,6.27
2022-10-05T04:58:14.074Z,5.47
2022-10-05T05:01:27.477Z,6.43
2022-10-05T05:04:47.148Z,5.57
2022-10-05T05:07:56.868Z,6.67
2022-10-05T05:11:15.889Z,6.00
2022-10-05T05:14:33.515Z,6.17
2022-10-05T05:17:49.973Z,6.03
2022-10-05T05:20:57.600Z,6.30
2022-10-05T05:24:06.086Z,6.10
2022-10-05T05:27:25.129Z,7.07
2022-10-05T05:30:36.053Z,6.40
2022-10-05T05:33:45.811Z,6.90
2022-10-05T05:36:54.493Z,6.33
2022-10-05T05:40:06.514Z,6.80
2022-10-05T05:43:24.185Z,5.63
2022-10-05T05:46:51.227Z,6.23
2022-10-05T05:50:07.018Z,6.73
2022-10-05T05:53:16.010Z,6.80
2022-10-05T05:56:22.294Z,6.47
2022-10-05T05:59:30.186Z,6.73
2022-10-05T06:02:39.305Z,7.87
2022-10-05T06:05:45.219Z,6.93
2022-10-05T06:08:49.132Z,7.03
2022-10-05T06:11:54.479Z,6.77
2022-10-05T06:15:00.862Z,7.33
2022-10-05T06:18:06.186Z,6.33
2022-10-05T06:21:14.790Z,6.87
2022-10-05T06:24:23.081Z,6.77
2022-10-05T06:27:36.719Z,7.00
2022-10-05T06:30:51.637Z,6.85
2022-10-05T06:33:56.084Z,7.70
2022-10-05T06:37:01.606Z,7.53
2022-10-05T06:40:11.737Z,7.33
2022-10-05T06:43:25.841Z,7.57
2022-10-05T06:46:33.936Z,8.33
2022-10-05T06:49:43.225Z,7.67
2022-10-05T06:52:57.788Z,7.17
2022-10-05T06:56:05.722Z,7.50
2022-10-05T06:59:10.860Z,7.43
2022-10-05T07:02:20.398Z,8.10
2022-10-05T07:05:44.829Z,7.37
2022-10-05T07:08:56.877Z,7.33
2022-10-05T07:12:09.057Z,6.93
2022-10-05T07:15:23.547Z,6.83
2022-10-05T07:18:37.300Z,6.50
2022-10-05T07:21:45.667Z,6.82
2022-10-05T07:24:52.603Z,6.60
2022-10-05T07:27:59.150Z,6.90
2022-10-05T07:31:05.917Z,6.43
2022-10-05T07:34:16.516Z,6.10
2022-10-05T07:37:39.570Z,6.47
2022-10-05T07:40:45.402Z,5.60
2022-10-05T07:44:12.544Z,5.70
2022-10-05T07:47:20.123Z,4.90
2022-10-05T07:50:27.805Z,5.37
2022-10-05T07:53:34.434Z,5.07
2022-10-05T07:56:40.465Z,5.57
2022-10-05T07:59:46.018Z,4.63
2022-10-05T08:02:51.870Z,5.40
2022-10-05T08:05:56.238Z,4.93
2022-10-05T08:09:03.954Z,4.67
2022-10-05T08:12:24.578Z,5.30
2022-10-05T08:15:31.286Z,4.60
2022-10-05T08:18:43.659Z,4.73
2022-10-05T08:21:52.111Z,4.83
2022-10-05T08:24:59.347Z,5.00
2022-10-05T08:28:06.188Z,5.20
2022-10-05T08:31:14.865Z,5.70
2022-10-05T08:34:24.238Z,5.97
2022-10-05T08:37:32.344Z,5.00
2022-10-05T08:41:04.899Z,5.50
2022-10-05T08:44:40.996Z,5.43
2022-10-05T08:48:00.649Z,5.00
2022-10-05T08:51:37.050Z,4.90
2022-10-05T08:54:47.990Z,5.07
2022-10-05T08:58:03.205Z,5.13
2022-10-05T09:01:11.344Z,4.73
2022-10-05T09:04:24.226Z,4.70
2022-10-05T09:07:44.295Z,4.93
2022-10-05T09:11:03.811Z,5.03
2022-10-05T09:14:36.702Z,5.30
2022-10-05T09:18:08.370Z,4.60
2022-10-05T09:21:15.399Z,5.13
2022-10-05T09:24:27.319Z,4.60
2022-10-05T09:27:39.640Z,4.60
2022-10-05T09:30:53.012Z,4.93
2022-10-05T09:34:27.099Z,4.43
2022-10-05T09:44:34.027Z,4.00
2022-10-05T09:48:05.509Z,4.17
2022-10-05T09:51:31.668Z,3.80
2022-10-05T09:55:04.828Z,3.83
2022-10-05T09:58:31.984Z,3.90
2022-10-05T10:01:51.296Z,3.57
2022-10-05T10:05:33.229Z,4.03
2022-10-05T10:08:45.152Z,4.07
2022-10-05T10:12:00.978Z,4.20
2022-10-05T10:15:38.293Z,3.43
2022-10-05T10:19:06.121Z,3.17
2022-10-05T10:22:27.056Z,2.93
2022-10-05T10:26:11.389Z,2.77
2022-10-05T10:29:41.340Z,2.83
2022-10-05T10:33:21.955Z,2.70
2022-10-05T10:36:40.145Z,2.33
2022-10-05T10:39:58.963Z,2.70
2022-10-05T10:43:29.515Z,2.80
2022-10-05T10:46:39.735Z,2.27
2022-10-05T10:50:05.041Z,2.17
2022-10-05T10:53:38.496Z,2.50
2022-10-05T10:56:50.620Z,1.50
2022-10-05T11:00:21.718Z,1.10
2022-10-05T11:03:48.174Z,0.80
2022-10-05T11:07:18.376Z,1.27
2022-10-05T11:10:33.714Z,1.20
2022-10-05T11:13:47.800Z,1.10
2022-10-05T11:17:22.229Z,0.70
2022-10-05T11:20:48.851Z,1.10
2022-10-05T11:24:23.008Z,1.20
2022-10-05T11:27:42.079Z,0.97
2022-10-05T11:31:10.928Z,1.03
2022-10-05T11:34:46.968Z,1.67
2022-10-05T11:38:22.491Z,0.90
2022-10-05T11:41:41.394Z,1.50
2022-10-05T11:45:11.740Z,1.20
2022-10-05T11:48:32.477Z,1.50
2022-10-05T11:51:41.356Z,1.20
2022-10-05T11:55:14.855Z,1.13
2022-10-05T11:58:23.168Z,1.17
2022-10-05T12:01:30.886Z,1.00
2022-10-05T12:04:39.295Z,1.00
2022-10-05T12:07:47.547Z,1.20
2022-10-05T12:10:58.957Z,0.90
2022-10-05T12:14:05.606Z,1.00
2022-10-05T12:17:17.414Z,0.90
2022-10-05T12:20:22.964Z,0.90
2022-10-05T12:23:33.709Z,1.23
2022-10-05T12:26:40.711Z,1.10
2022-10-05T12:29:45.925Z,1.20
2022-10-05T12:33:00.913Z,1.10
2022-10-05T12:36:09.360Z,0.98
2022-10-05T12:39:19.951Z,1.00
2022-10-05T12:42:29.261Z,1.65
2022-10-05T12:45:43.558Z,1.10
2022-10-05T12:49:21.396Z,1.25
2022-10-05T12:52:33.989Z,0.80
2022-10-05T12:55:42.330Z,0.70
2022-10-05T12:58:53.477Z,0.80
2022-10-05T13:02:00.168Z,0.60
2022-10-05T13:05:12.668Z,0.85
2022-10-05T13:08:22.526Z,0.60
2022-10-05T13:11:31.466Z,0.40
2022-10-05T13:14:46.503Z,0.47
2022-10-05T13:17:56.902Z,0.50
2022-10-05T13:21:05.311Z,0.75
2022-10-05T13:24:13.974Z,0.88
2022-10-05T13:27:22.039Z,0.73
2022-10-05T13:30:24.854Z,0.45
2022-10-05T13:33:48.513Z,0.52
2022-10-05T13:37:03.499Z,0.40
2022-10-05T13:40:18.655Z,0.60
2022-10-05T13:43:27.499Z,0.73
2022-10-05T13:46:37.881Z,0.43
2022-10-05T13:52:57.948Z,0.70
2022-10-05T13:56:02.036Z,0.50
2022-10-05T13:59:15.111Z,0.30
2022-10-05T14:02:22.357Z,0.55
2022-10-05T14:05:26.893Z,0.40
2022-10-05T14:08:32.719Z,0.45
2022-10-05T14:11:36.525Z,0.43
2022-10-05T14:14:47.328Z,0.35
2022-10-05T14:17:51.350Z,0.55
2022-10-05T14:21:05.863Z,0.47
2022-10-05T14:27:51.511Z,0.50
2022-10-05T14:31:00.471Z,1.60
2022-10-05T14:34:37.337Z,0.60
2022-10-05T14:37:47.360Z,0.88
2022-10-05T14:41:07.275Z,0.47
2022-10-05T14:44:27.941Z,0.52
2022-10-05T14:47:34.328Z,0.63
2022-10-05T14:50:52.291Z,1.00
2022-10-05T14:53:58.745Z,0.32
2022-10-05T14:57:11.331Z,0.60
2022-10-05T15:03:33.229Z,0.85
2022-10-05T15:06:39.322Z,5.20
2022-10-05T15:09:51.037Z,1.33
2022-10-05T15:12:55.387Z,1.67
2022-10-05T15:16:01.559Z,1.58
2022-10-05T15:19:18.037Z,1.02
2022-10-05T15:22:29.129Z,1.15
2022-10-05T15:25:37.181Z,1.20
2022-10-05T15:28:48.322Z,1.38
2022-10-05T15:31:56.066Z,4.07
2022-10-05T15:35:15.127Z,1.73
2022-10-05T15:38:21.944Z,1.40
2022-10-05T15:41:26.095Z,1.70
2022-10-05T15:44:39.911Z,1.92
2022-10-05T15:47:49.147Z,1.20
2022-10-05T15:50:55.852Z,0.95
2022-10-05T15:54:20.782Z,0.90
2022-10-05T15:57:27.085Z,0.90
2022-10-05T16:00:32.756Z,1.98
2022-10-05T16:03:44.992Z,1.40
2022-10-05T16:07:08.538Z,0.70
2022-10-05T16:10:21.394Z,0.90
2022-10-05T16:13:34.097Z,0.90
2022-10-05T16:16:42.698Z,0.75
2022-10-05T16:19:49.742Z,0.80
2022-10-05T16:22:59.773Z,0.80
2022-10-05T16:26:13.302Z,0.60
2022-10-05T16:29:21.193Z,1.30
2022-10-05T16:32:30.297Z,1.00
2022-10-05T16:35:38.681Z,0.80
2022-10-05T16:38:47.459Z,1.10
2022-10-05T16:41:56.641Z,1.07
2022-10-05T16:45:06.879Z,1.00
2022-10-05T16:48:13.710Z,1.33
2022-10-05T16:51:26.690Z,1.10
2022-10-05T16:54:33.831Z,1.50
2022-10-05T16:57:40.550Z,1.27
2022-10-05T17:00:53.036Z,1.13
2022-10-05T17:04:07.258Z,1.00
2022-10-05T17:07:25.240Z,0.90
2022-10-05T17:10:49.380Z,1.10
2022-10-05T17:14:13.919Z,1.40
2022-10-05T17:17:32.621Z,1.27
2022-10-05T17:20:43.536Z,1.57
2022-10-05T17:23:54.670Z,1.60
2022-10-05T17:27:15.965Z,1.40
2022-10-05T17:30:37.526Z,1.10
2022-10-05T17:34:26.364Z,1.40
2022-10-05T17:37:36.651Z,1.77
2022-10-05T17:40:40.375Z,1.10
2022-10-05T17:44:19.122Z,1.30
2022-10-05T17:48:03.700Z,1.50
2022-10-05T17:51:34.745Z,1.20
2022-10-05T17:55:13.496Z,1.40
2022-10-05T17:59:02.193Z,0.80
2022-10-05T18:02:21.760Z,0.90
2022-10-05T18:05:27.863Z,1.23
2022-10-05T18:08:38.449Z,1.20
2022-10-05T18:11:42.985Z,1.20
2022-10-05T18:14:55.995Z,0.97
2022-10-05T18:18:21.948Z,0.90
2022-10-05T18:21:35.550Z,0.80
2022-10-05T18:24:46.878Z,0.90
2022-10-05T18:28:16.587Z,0.90
2022-10-05T18:31:27.922Z,1.60
2022-10-05T18:34:34.627Z,0.90
2022-10-05T18:37:46.960Z,1.10
2022-10-05T18:40:54.538Z,1.73
2022-10-05T18:44:08.945Z,1.47
2022-10-05T18:47:17.601Z,1.50
2022-10-05T18:50:28.098Z,2.37
2022-10-05T18:53:38.652Z,1.47
2022-10-05T18:56:45.259Z,1.10
2022-10-05T18:59:52.326Z,1.27
2022-10-05T19:02:59.288Z,1.07
2022-10-05T19:06:13.431Z,0.93
2022-10-05T19:09:25.203Z,0.93
2022-10-05T19:12:41.397Z,1.00
2022-10-05T19:15:51.604Z,1.00
2022-10-05T19:19:04.971Z,0.80
2022-10-05T19:22:17.180Z,0.85
2022-10-05T19:25:27.939Z,0.90
2022-10-05T19:28:35.902Z,1.53
2022-10-05T19:31:41.783Z,1.10
2022-10-05T19:34:52.990Z,1.27
2022-10-05T19:38:11.769Z,1.10
2022-10-05T19:41:19.417Z,1.10
2022-10-05T19:44:32.509Z,1.67
2022-10-05T19:47:44.687Z,1.65
2022-10-05T19:50:54.546Z,1.83
2022-10-05T19:54:01.998Z,1.97
2022-10-05T19:57:16.903Z,3.20
2022-10-05T20:00:24.657Z,1.87
2022-10-05T20:03:29.743Z,2.03
2022-10-05T20:06:32.555Z,2.10
2022-10-05T20:13:04.915Z,2.13
2022-10-05T20:16:27.222Z,1.40
2022-10-05T20:19:54.550Z,2.47
2022-10-05T20:23:22.100Z,2.47
2022-10-05T20:27:01.225Z,1.57
2022-10-05T20:30:06.379Z,1.27
2022-10-05T20:33:14.656Z,1.50
2022-10-05T20:36:17.363Z,1.33
2022-10-05T20:39:21.464Z,1.27
2022-10-05T20:42:24.353Z,1.20
2022-10-05T20:45:28.505Z,1.30
2022-10-05T20:48:31.369Z,1.30
2022-10-05T20:51:34.259Z,1.30
2022-10-05T20:54:37.643Z,1.58
2022-10-05T21:01:04.267Z,1.70
2022-10-05T21:04:06.895Z,1.60
2022-10-05T21:07:10.230Z,1.38
2022-10-05T21:10:14.215Z,2.17
2022-10-05T21:13:17.621Z,1.37
2022-10-05T21:16:23.038Z,1.90
2022-10-05T21:19:26.095Z,1.40
2022-10-05T21:22:28.898Z,2.28
2022-10-05T21:25:31.806Z,1.55
2022-10-05T21:28:34.965Z,1.75
2022-10-05T21:31:39.291Z,1.60
2022-10-05T21:34:42.796Z,1.50
2022-10-05T21:40:48.068Z,1.80
2022-10-05T21:43:50.773Z,1.35
2022-10-05T21:46:56.117Z,1.60
2022-10-05T21:50:00.372Z,3.93
2022-10-05T21:53:04.607Z,3.37
2022-10-05T21:56:10.644Z,1.80
2022-10-05T21:59:14.800Z,2.07
2022-10-05T22:02:18.830Z,1.80
2022-10-05T22:05:21.732Z,1.40
2022-10-05T22:08:27.184Z,1.30
2022-10-05T22:11:30.198Z,1.50
2022-10-05T22:14:32.868Z,1.08
2022-10-05T22:17:37.180Z,1.27
2022-10-05T22:20:40.090Z,1.10
2022-10-05T22:23:44.581Z,1.60
2022-10-05T22:26:48.401Z,1.50
2022-10-05T22:29:51.944Z,1.47
2022-10-05T22:32:55.907Z,1.40
2022-10-05T22:35:59.699Z,1.20
2022-10-05T22:39:02.711Z,1.30
2022-10-05T22:42:05.818Z,1.60
2022-10-05T22:45:09.731Z,1.25
2022-10-05T22:48:13.992Z,1.20
2022-10-05T22:51:16.647Z,1.27
2022-10-05T22:54:19.409Z,1.38
2022-10-05T22:57:22.163Z,1.80
2022-10-05T23:00:40.452Z,1.55
2022-10-05T23:03:49.014Z,1.70
2022-10-05T23:06:51.782Z,1.43
2022-10-05T23:09:54.572Z,2.13
2022-10-05T23:13:00.822Z,1.15
2022-10-05T23:16:08.441Z,3.47
2022-10-05T23:19:12.923Z,1.93
2022-10-05T23:22:15.571Z,1.53
2022-10-05T23:25:18.555Z,1.48
2022-10-05T23:28:21.751Z,1.33
2022-10-05T23:31:26.500Z,1.83
2022-10-05T23:34:30.556Z,1.60
2022-10-05T23:37:33.570Z,1.90
2022-10-05T23:40:36.220Z,2.00
2022-10-05T23:43:38.855Z,1.80
2022-10-05T23:46:41.635Z,2.53
2022-10-05T23:49:45.681Z,2.60
2022-10-05T23:52:48.458Z,1.93
2022-10-05T23:55:51.692Z,1.63
2022-10-05T23:58:54.538Z,1.65
